createdAt,value
2019-03-31T00:00:01.559Z,45
2019-03-31T00:05:02.197Z,37
2019-03-31T00:10:01.964Z,35
2019-03-31T00:15:02.220Z,44
2019-03-31T00:20:01.675Z,42
2019-03-31T00:25:02.031Z,42
2019-03-31T00:30:01.619Z,38
2019-03-31T00:35:01.970Z,38
2019-03-31T00:40:02.044Z,38
2019-03-31T00:45:01.455Z,37
2019-03-31T00:50:01.810Z,39
2019-03-31T00:55:02.153Z,40
2019-03-31T01:00:01.491Z,31
2019-03-31T01:05:02.154Z,38
2019-03-31T01:10:01.937Z,40
2019-03-31T01:15:02.212Z,35
2019-03-31T01:20:01.638Z,36
2019-03-31T01:25:01.984Z,39
2019-03-31T01:30:01.361Z,38
2019-03-31T01:35:01.705Z,32
2019-03-31T01:40:01.471Z,37
2019-03-31T01:45:01.828Z,37
2019-03-31T01:50:02.215Z,28
2019-03-31T01:55:01.542Z,35
2019-03-31T02:00:01.972Z,35
2019-03-31T02:05:01.639Z,23
2019-03-31T02:10:01.435Z,33
2019-03-31T02:15:01.811Z,25
2019-03-31T02:20:02.272Z,28
2019-03-31T02:25:01.621Z,37
2019-03-31T02:30:01.999Z,31
2019-03-31T02:35:01.323Z,27
2019-03-31T02:40:02.133Z,27
2019-03-31T02:45:01.518Z,29
2019-03-31T02:50:01.879Z,23
2019-03-31T02:55:02.289Z,26
2019-03-31T03:00:01.730Z,24
2019-03-31T03:05:17.740Z,20
2019-03-31T03:10:01.812Z,20
2019-03-31T03:15:01.954Z,21
2019-03-31T03:20:01.404Z,19
2019-03-31T03:25:01.752Z,17
2019-03-31T03:30:02.239Z,16
2019-03-31T03:35:01.590Z,19
2019-03-31T03:40:01.442Z,18
2019-03-31T03:45:01.887Z,16
2019-03-31T03:50:02.280Z,18
2019-03-31T03:55:01.622Z,15
2019-03-31T04:00:01.976Z,16
2019-03-31T04:05:01.649Z,15
2019-03-31T04:10:01.488Z,16
2019-03-31T04:15:01.661Z,14
2019-03-31T04:20:02.169Z,16
2019-03-31T04:25:01.550Z,16
2019-03-31T04:30:01.916Z,15
2019-03-31T04:35:02.510Z,14
2019-03-31T04:40:02.333Z,16
2019-03-31T04:45:01.668Z,12
2019-03-31T04:50:01.659Z,16
2019-03-31T04:55:02.012Z,15
2019-03-31T05:00:01.354Z,14
2019-03-31T05:05:02.056Z,12
2019-03-31T05:10:01.927Z,15
2019-03-31T05:15:01.409Z,14
2019-03-31T05:20:01.863Z,14
2019-03-31T05:25:02.206Z,14
2019-03-31T05:30:01.585Z,12
2019-03-31T05:35:01.965Z,13
2019-03-31T05:40:01.819Z,10
2019-03-31T05:45:02.159Z,12
2019-03-31T05:50:01.505Z,12
2019-03-31T05:55:01.872Z,10
2019-03-31T06:00:02.215Z,11
2019-03-31T06:05:01.845Z,13
2019-03-31T06:10:01.644Z,10
2019-03-31T06:15:02.266Z,12
2019-03-31T06:20:01.686Z,12
2019-03-31T06:25:02.036Z,9
2019-03-31T06:30:01.433Z,10
2019-03-31T06:35:01.828Z,10
2019-03-31T06:40:01.561Z,11
2019-03-31T06:45:01.927Z,9
2019-03-31T06:50:02.317Z,10
2019-03-31T06:55:01.601Z,11
2019-03-31T07:00:02.002Z,9
2019-03-31T07:05:02.097Z,6
2019-03-31T07:10:01.997Z,10
2019-03-31T07:15:02.170Z,9
2019-03-31T07:20:01.613Z,11
2019-03-31T07:25:01.992Z,7
2019-03-31T07:30:01.376Z,7
2019-03-31T07:35:01.722Z,7
2019-03-31T07:40:01.598Z,4
2019-03-31T07:45:02.079Z,5
2019-03-31T07:50:01.477Z,4
2019-03-31T07:55:01.837Z,5
2019-03-31T08:00:02.149Z,5
2019-03-31T08:05:01.771Z,5
2019-03-31T08:10:01.567Z,5
2019-03-31T08:15:01.553Z,4
2019-03-31T08:20:01.998Z,4
2019-03-31T08:25:01.382Z,4
2019-03-31T08:30:01.752Z,2
2019-03-31T08:35:02.132Z,2
2019-03-31T08:40:01.999Z,4
2019-03-31T08:45:01.415Z,5
2019-03-31T08:50:02.788Z,3
2019-03-31T08:55:02.279Z,3
2019-03-31T09:00:01.624Z,4
2019-03-31T09:05:02.515Z,4
2019-03-31T09:10:02.311Z,3
2019-03-31T09:15:01.615Z,3
2019-03-31T09:20:02.076Z,3
2019-03-31T09:25:01.412Z,3
2019-03-31T09:30:01.801Z,3
2019-03-31T09:35:02.197Z,4
2019-03-31T09:40:02.004Z,2
2019-03-31T09:45:01.355Z,4
2019-03-31T09:50:01.740Z,3
2019-03-31T09:55:02.084Z,3
2019-03-31T10:00:01.435Z,2
2019-03-31T10:05:02.088Z,3
2019-03-31T10:10:02.094Z,2
2019-03-31T10:15:01.996Z,3
2019-03-31T10:20:01.736Z,2
2019-03-31T10:25:02.093Z,2
2019-03-31T10:30:01.512Z,2
2019-03-31T10:35:01.884Z,4
2019-03-31T10:40:01.641Z,3
2019-03-31T10:45:02.012Z,2
2019-03-31T10:50:01.370Z,3
2019-03-31T10:55:01.714Z,4
2019-03-31T11:00:02.078Z,3
2019-03-31T11:05:01.728Z,3
2019-03-31T11:10:01.526Z,3
2019-03-31T11:15:01.770Z,3
2019-03-31T11:20:02.219Z,4
2019-03-31T11:25:01.568Z,2
2019-03-31T11:30:01.938Z,1
2019-03-31T11:35:02.316Z,2
2019-03-31T11:40:02.075Z,1
2019-03-31T11:45:01.428Z,3
2019-03-31T11:50:01.834Z,3
2019-03-31T11:55:02.231Z,2
2019-03-31T12:00:01.531Z,79
2019-03-31T12:05:02.159Z,115
2019-03-31T12:10:01.921Z,88
2019-03-31T12:15:01.627Z,58
2019-03-31T12:20:02.115Z,37
2019-03-31T12:25:01.492Z,17
2019-03-31T12:30:01.892Z,17
2019-03-31T12:35:02.248Z,11
2019-03-31T12:40:02.039Z,9
2019-03-31T12:45:01.389Z,13
2019-03-31T12:50:01.744Z,9
2019-03-31T12:55:02.143Z,12
2019-03-31T13:00:01.480Z,11
2019-03-31T13:05:02.136Z,16
2019-03-31T13:10:01.929Z,11
2019-03-31T13:15:02.022Z,10
2019-03-31T13:20:01.534Z,8
2019-03-31T13:25:02.523Z,6
2019-03-31T13:30:01.377Z,7
2019-03-31T13:35:01.738Z,5
2019-03-31T13:40:01.574Z,9
2019-03-31T13:45:01.915Z,6
2019-03-31T13:50:02.290Z,6
2019-03-31T13:55:01.652Z,5
2019-03-31T14:00:01.962Z,4
2019-03-31T14:05:01.636Z,4
2019-03-31T14:10:01.466Z,11
2019-03-31T14:15:02.236Z,6
2019-03-31T14:20:01.681Z,3
2019-03-31T14:25:02.049Z,6
2019-03-31T14:30:01.441Z,4
2019-03-31T14:35:01.800Z,7
2019-03-31T14:40:01.617Z,10
2019-03-31T14:45:01.969Z,5
2019-03-31T14:50:01.353Z,4
2019-03-31T14:55:01.698Z,3
2019-03-31T15:00:13.976Z,4
2019-03-31T15:05:01.544Z,3
2019-03-31T15:10:01.338Z,2
2019-03-31T15:15:01.799Z,2
2019-03-31T15:20:02.266Z,2
2019-03-31T15:25:01.605Z,3
2019-03-31T15:30:01.968Z,2
2019-03-31T15:35:01.560Z,2
2019-03-31T15:40:01.343Z,1
2019-03-31T15:45:01.693Z,2
2019-03-31T15:50:02.102Z,3
2019-03-31T15:55:01.494Z,1
2019-03-31T16:00:01.800Z,1
2019-03-31T16:05:01.469Z,2
2019-03-31T16:10:02.288Z,3
2019-03-31T16:15:01.682Z,3
2019-03-31T16:20:02.132Z,3
2019-03-31T16:25:01.448Z,2
2019-03-31T16:30:01.824Z,2
2019-03-31T16:35:02.169Z,2
2019-03-31T16:40:01.938Z,1
2019-03-31T16:45:02.325Z,3
2019-03-31T16:50:01.688Z,2
2019-03-31T16:55:02.099Z,2
2019-03-31T17:00:01.447Z,2
2019-03-31T17:05:02.092Z,2
2019-03-31T17:10:01.874Z,0
2019-03-31T17:15:02.184Z,3
2019-03-31T17:20:01.630Z,3
2019-03-31T17:25:01.974Z,2
2019-03-31T17:30:01.346Z,2
2019-03-31T17:35:01.696Z,2
2019-03-31T17:40:06.403Z,1
2019-03-31T17:45:02.189Z,2
2019-03-31T17:50:01.613Z,4
2019-03-31T17:55:02.012Z,5
2019-03-31T18:00:01.328Z,3
2019-03-31T18:05:02.011Z,2
2019-03-31T18:10:01.816Z,4
2019-03-31T18:15:01.498Z,1
2019-03-31T18:20:01.968Z,3
2019-03-31T18:25:01.289Z,2
2019-03-31T18:30:01.648Z,2
2019-03-31T18:35:02.001Z,2
2019-03-31T18:40:01.789Z,4
2019-03-31T18:45:02.171Z,4
2019-03-31T18:50:01.527Z,9
2019-03-31T18:55:01.898Z,16
2019-03-31T19:00:02.232Z,36
2019-03-31T19:05:01.879Z,36
2019-03-31T19:10:01.693Z,12
2019-03-31T19:15:01.773Z,9
2019-03-31T19:20:02.222Z,17
2019-03-31T19:25:01.546Z,39
2019-03-31T19:30:01.906Z,42
2019-03-31T19:35:02.297Z,31
2019-03-31T19:40:02.106Z,53
2019-03-31T19:45:01.462Z,31
2019-03-31T19:50:01.883Z,21
2019-03-31T19:55:02.273Z,63
2019-03-31T20:00:01.583Z,27
2019-03-31T20:05:02.228Z,31
2019-03-31T20:10:01.997Z,25
2019-03-31T20:15:01.883Z,20
2019-03-31T20:20:01.337Z,18
2019-03-31T20:25:01.644Z,25
2019-03-31T20:30:02.049Z,52
2019-03-31T20:35:01.415Z,23
2019-03-31T20:40:02.269Z,8
2019-03-31T20:45:01.599Z,2
2019-03-31T20:50:02.219Z,0
2019-03-31T20:55:15.309Z,1
2019-03-31T21:00:02.270Z,2
2019-03-31T21:05:02.323Z,2
2019-03-31T21:10:02.131Z,1
2019-03-31T21:15:01.498Z,1
2019-03-31T21:20:01.995Z,1
2019-03-31T21:25:01.324Z,1
2019-03-31T21:30:01.696Z,1
2019-03-31T21:35:02.061Z,0
2019-03-31T21:40:01.846Z,1
2019-03-31T21:45:02.238Z,1
2019-03-31T21:50:01.601Z,2
2019-03-31T21:55:01.950Z,0
2019-03-31T22:00:01.296Z,1
2019-03-31T22:05:01.933Z,1
2019-03-31T22:10:01.713Z,3
2019-03-31T22:15:01.829Z,1
2019-03-31T22:20:01.934Z,2
2019-03-31T22:25:02.306Z,0
2019-03-31T22:30:01.538Z,1
2019-03-31T22:35:01.921Z,2
2019-03-31T22:40:01.753Z,1
2019-03-31T22:45:01.991Z,1
2019-03-31T22:50:01.365Z,0
2019-03-31T22:55:01.715Z,0
2019-03-31T23:00:02.103Z,1
2019-03-31T23:05:01.778Z,1
2019-03-31T23:10:01.584Z,0
2019-03-31T23:15:02.050Z,0
2019-03-31T23:20:01.543Z,0
2019-03-31T23:25:01.899Z,0
2019-03-31T23:30:02.267Z,2
2019-03-31T23:35:01.606Z,1
2019-03-31T23:40:01.354Z,0
2019-03-31T23:45:01.706Z,1
2019-03-31T23:50:02.061Z,0
2019-03-31T23:55:01.448Z,1
